Terminal Aerodrome Forecast
Issued by NWS Los Angeles, CA

Current Version | Previous Version | Text Only | Print | Product List | Glossary On
Versions: 1 2 3 4 5 6 7 8 9 10 11 12 13 14 15 16 17 18 19 20 21 22 23 24 25 26 27
585
FTUS46 KLOX 280433 AAC
TAFSMX
TAF AMD
KSMX 280433Z 2805/2824 VRB03KT 6SM BR BKN007 OVC012
     FM280900 VRB03KT 4SM BR OVC007
     FM281100 VRB03KT 2SM BR OVC005
     FM281600 VRB03KT 5SM BR SCT010 SCT015
     FM282000 31012KT P6SM SCT150=

USA.gov is the U.S. government's official web portal to all federal, state and local government web resources and services.